Time;durP1;ratioP1;P1;durP2;ratioP2;P2;SDS_P1;SDS_P2;PMS_P1;PMS_P2;Temp;Humidity;BMP_temperature;BMP_pressure;BME280_temperature;BME280_humidity;BME280_pressure;Samples;Min_cycle;Max_cycle;Signal;HPM_P1;HPM_P2
2022/06/08 00:00:56;;;;;;;;;;;;;;;-145.88;100.00;58037.16;2061247;28;2111;-69
2022/06/08 00:01:59;;;;;;;;;;;;;;;-145.88;100.00;58037.16;2059416;28;1097;-68
2022/06/08 00:03:06;;;;;;;;;;;;;;;-145.88;100.00;58037.16;2062389;28;1595;-67
2022/06/08 00:04:11;;;;;;;;;;;;;;;-145.88;100.00;58037.16;2062351;28;1816;-68
2022/06/08 00:05:14;;;;;;;;;;;;;;;-145.88;100.00;58037.16;2065870;28;1774;-69
2022/06/08 00:06:18;;;;;;;;;;;;;;;-145.88;100.00;58037.16;2058193;28;2001;-68
2022/06/08 00:07:21;;;;;;;;;;;;;;;-145.88;100.00;58037.16;2058497;28;1203;-68
2022/06/08 00:08:23;;;;;;;;;;;;;;;-145.88;100.00;58037.16;2058000;28;1055;-67
2022/06/08 00:09:26;;;;;;;;;;;;;;;-145.88;100.00;58037.16;2057453;28;1894;-68
2022/06/08 00:10:29;;;;;;;;;;;;;;;-145.88;100.00;58037.16;2065968;28;1077;-69
2022/06/08 00:11:32;;;;;;;;;;;;;;;-145.88;100.00;58037.16;2060844;28;1774;-69
2022/06/08 00:12:34;;;;;;;;;;;;;;;-145.88;100.00;58037.16;2065763;28;1614;-68
2022/06/08 00:13:37;;;;;;;;;;;;;;;-145.88;100.00;58037.16;2059174;28;1717;-69
2022/06/08 00:14:40;;;;;;;;;;;;;;;-145.88;100.00;58037.16;2059152;28;1999;-68
2022/06/08 00:15:42;;;;;;;;;;;;;;;-145.88;100.00;58037.16;2066170;28;1687;-69
2022/06/08 00:16:45;;;;;;;;;;;;;;;-145.88;100.00;58037.16;2066412;28;1224;-69
2022/06/08 00:17:47;;;;;;;;;;;;;;;-145.88;100.00;58037.16;2066592;28;1186;-69
2022/06/08 00:18:50;;;;;;;;;;;;;;;-145.88;100.00;58037.16;2064971;28;1841;-68
2022/06/08 00:19:52;;;;;;;;;;;;;;;-145.88;100.00;58037.16;2062434;28;1722;-67
2022/06/08 00:20:55;;;;;;;;;;;;;;;-145.88;100.00;58037.16;2052776;28;1126;-68
2022/06/08 00:21:58;;;;;;;;;;;;;;;-145.88;100.00;58037.16;2061938;28;1880;-68
2022/06/08 00:23:01;;;;;;;;;;;;;;;-145.88;100.00;58037.16;2064375;28;1812;-70
2022/06/08 00:24:05;;;;;;;;;;;;;;;-145.88;100.00;58037.16;2058775;28;1712;-68
2022/06/08 00:25:07;;;;;;;;;;;;;;;-145.88;100.00;58037.16;2066803;28;1379;-68
2022/06/08 00:26:10;;;;;;;;;;;;;;;-145.88;100.00;58037.16;2066245;28;1169;-68
2022/06/08 00:27:12;;;;;;;;;;;;;;;-145.88;100.00;58037.16;2060607;28;2014;-68
2022/06/08 00:28:15;;;;;;;;;;;;;;;-145.88;100.00;58037.16;2059870;28;2022;-69
2022/06/08 00:29:17;;;;;;;;;;;;;;;-145.88;100.00;58037.16;2066018;28;1123;-70
2022/06/08 00:30:20;;;;;;;;;;;;;;;-145.88;100.00;58037.16;2066091;28;1743;-68
2022/06/08 00:31:22;;;;;;;;;;;;;;;-145.88;100.00;58037.16;2059968;28;1919;-68
2022/06/08 00:32:24;;;;;;;;;;;;;;;-145.88;100.00;58037.16;2061397;28;1174;-68
2022/06/08 00:33:26;;;;;;;;;;;;;;;-145.88;100.00;58037.16;2066163;28;1838;-68
2022/06/08 00:34:29;;;;;;;;;;;;;;;-145.88;100.00;58037.16;2061690;28;1789;-68
2022/06/08 00:35:31;;;;;;;;;;;;;;;-145.88;100.00;58037.16;2057907;28;1195;-68
2022/06/08 00:36:34;;;;;;;;;;;;;;;-145.88;100.00;58037.16;2058001;28;1123;-68
2022/06/08 00:37:37;;;;;;;;;;;;;;;-145.88;100.00;58037.16;2058072;28;1868;-68
2022/06/08 00:38:40;;;;;;;;;;;;;;;-145.88;100.00;58037.16;2058231;28;1982;-68
2022/06/08 00:39:43;;;;;;;;;;;;;;;-145.88;100.00;58037.16;2058194;28;1987;-68
2022/06/08 00:40:52;;;;;;;;;;;;;;;-145.88;100.00;58037.16;2058460;28;1047;-68
2022/06/08 00:41:56;;;;;;;;;;;;;;;-145.88;100.00;58037.16;2060507;28;1754;-66
2022/06/08 00:42:57;;;;;;;;;;;;;;;-145.88;100.00;58037.16;2058293;28;1579;-67
2022/06/08 00:44:01;;;;;;;;;;;;;;;-145.88;100.00;58037.16;2060315;28;1657;-69
2022/06/08 00:45:07;;;;;;;;;;;;;;;-145.88;100.00;58037.16;2065059;28;1969;-69
2022/06/08 00:46:10;;;;;;;;;;;;;;;-145.88;100.00;58037.16;2061665;28;2055;-69
2022/06/08 00:47:13;;;;;;;;;;;;;;;-145.88;100.00;58037.16;2063859;28;1914;-69
2022/06/08 00:48:17;;;;;;;;;;;;;;;-145.88;100.00;58037.16;2065399;28;1956;-70
2022/06/08 00:49:21;;;;;;;;;;;;;;;-145.88;100.00;58037.16;2064315;28;1994;-69
2022/06/08 00:50:26;;;;;;;;;;;;;;;-145.88;100.00;58037.16;2058668;28;1469;-69
2022/06/08 00:51:27;;;;;;;;;;;;;;;-145.88;100.00;58037.16;2061108;28;1560;-67
2022/06/08 00:52:33;;;;;;;;;;;;;;;-145.88;100.00;58037.16;2060022;28;2045;-68
2022/06/08 00:53:40;;;;;;;;;;;;;;;-145.88;100.00;58037.16;2063556;28;1696;-68
2022/06/08 00:54:45;;;;;;;;;;;;;;;-145.88;100.00;58037.16;2057101;28;1263;-67
2022/06/08 00:55:47;;;;;;;;;;;;;;;-145.88;100.00;58037.16;2064491;28;1814;-69
2022/06/08 00:56:52;;;;;;;;;;;;;;;-145.88;100.00;58037.16;2063676;28;2032;-68
2022/06/08 00:57:57;;;;;;;;;;;;;;;-145.88;100.00;58037.16;2065691;28;1066;-68
2022/06/08 00:59:00;;;;;;;;;;;;;;;-145.88;100.00;58037.16;2064586;28;1945;-69
2022/06/08 01:00:04;;;;;;;;;;;;;;;-145.88;100.00;58037.16;2065174;28;2102;-68
2022/06/08 01:01:07;;;;;;;;;;;;;;;-145.88;100.00;58037.16;2065418;28;2016;-68
2022/06/08 01:02:09;;;;;;;;;;;;;;;-145.88;100.00;58037.16;2065762;28;1115;-68
2022/06/08 01:03:13;;;;;;;;;;;;;;;-145.88;100.00;58037.16;2062614;28;1729;-68
2022/06/08 01:04:16;;;;;;;;;;;;;;;-145.88;100.00;58037.16;2071673;28;998;-68
2022/06/08 01:05:22;;;;;;;;;;;;;;;-145.88;100.00;58037.16;2070320;28;1505;-68
2022/06/08 01:06:24;;;;;;;;;;;;;;;-145.88;100.00;58037.16;2057837;28;2282;-69
2022/06/08 01:07:27;;;;;;;;;;;;;;;-145.88;100.00;58037.16;2064854;28;2062;-64
2022/06/08 01:08:30;;;;;;;;;;;;;;;-145.88;100.00;58037.16;2064930;28;1743;-65
2022/06/08 01:09:36;;;;;;;;;;;;;;;-145.88;100.00;58037.16;2066193;28;1015;-64
2022/06/08 01:10:41;;;;;;;;;;;;;;;-145.88;100.00;58037.16;2065845;28;1131;-64
2022/06/08 01:11:45;;;;;;;;;;;;;;;-145.88;100.00;58037.16;2063038;28;1710;-66
2022/06/08 01:12:47;;;;;;;;;;;;;;;-145.88;100.00;58037.16;2065940;28;1011;-64
2022/06/08 01:13:51;;;;;;;;;;;;;;;-145.88;100.00;58037.16;2063438;28;1753;-65
2022/06/08 01:14:53;;;;;;;;;;;;;;;-145.88;100.00;58037.16;2065846;28;1181;-66
2022/06/08 01:15:56;;;;;;;;;;;;;;;-145.88;100.00;58037.16;2063857;28;2059;-64
2022/06/08 01:17:02;;;;;;;;;;;;;;;-145.88;100.00;58037.16;2060184;28;1702;-64
2022/06/08 01:18:05;;;;;;;;;;;;;;;-145.88;100.00;58037.16;2059561;28;1478;-64
2022/06/08 01:19:08;;;;;;;;;;;;;;;-145.88;100.00;58037.16;2057396;28;1007;-63
2022/06/08 01:20:11;;;;;;;;;;;;;;;-145.88;100.00;58037.16;2058226;28;1843;-63
2022/06/08 01:21:32;;;;;;;;;;;;;;;-145.88;100.00;58037.16;2056711;28;1978;-64
2022/06/08 01:22:36;;;;;;;;;;;;;;;-145.88;100.00;58037.16;2061672;28;1654;-64
2022/06/08 01:23:39;;;;;;;;;;;;;;;-145.88;100.00;58037.16;2064651;28;1704;-65
2022/06/08 01:24:43;;;;;;;;;;;;;;;-145.88;100.00;58037.16;2065689;28;1584;-63
2022/06/08 01:25:55;;;;;;;;;;;;;;;-145.88;100.00;58037.16;2065870;28;1069;-64
2022/06/08 01:27:03;;;;;;;;;;;;;;;-145.88;100.00;58037.16;2065511;28;1134;-64
2022/06/08 01:28:10;;;;;;;;;;;;;;;-145.88;100.00;58037.16;2061761;28;1910;-63
2022/06/08 01:29:15;;;;;;;;;;;;;;;-145.88;100.00;58037.16;2060859;28;1777;-64
2022/06/08 01:30:21;;;;;;;;;;;;;;;-145.88;100.00;58037.16;2062742;28;1481;-67
2022/06/08 01:31:27;;;;;;;;;;;;;;;-145.88;100.00;58037.16;2062088;28;1581;-66
2022/06/08 01:32:39;;;;;;;;;;;;;;;-145.88;100.00;58037.16;2057138;28;1924;-66
2022/06/08 01:33:49;;;;;;;;;;;;;;;-145.88;100.00;58037.16;2065092;28;1737;-66
2022/06/08 01:35:00;;;;;;;;;;;;;;;-145.88;100.00;58037.16;2064303;28;1851;-66
2022/06/08 01:36:11;;;;;;;;;;;;;;;-145.88;100.00;58037.16;2065878;28;1086;-66
2022/06/08 01:37:23;;;;;;;;;;;;;;;-145.88;100.00;58037.16;2064075;28;1841;-65
2022/06/08 01:38:32;;;;;;;;;;;;;;;-145.88;100.00;58037.16;2064199;28;2019;-66
2022/06/08 01:39:42;;;;;;;;;;;;;;;-145.88;100.00;58037.16;2053294;28;1117;-66
2022/06/08 01:40:52;;;;;;;;;;;;;;;-145.88;100.00;58037.16;2059110;28;2016;-67
2022/06/08 01:42:10;;;;;;;;;;;;;;;-145.88;100.00;58037.16;2061432;28;1984;-65
2022/06/08 01:43:18;;;;;;;;;;;;;;;-145.88;100.00;58037.16;2057630;28;1657;-65
2022/06/08 01:44:30;;;;;;;;;;;;;;;-145.88;100.00;58037.16;2059868;28;1995;-65
2022/06/08 01:45:42;;;;;;;;;;;;;;;-145.88;100.00;58037.16;2058338;28;1555;-66
2022/06/08 01:46:56;;;;;;;;;;;;;;;-145.88;100.00;58037.16;2059147;28;1961;-66
2022/06/08 01:48:03;;;;;;;;;;;;;;;-145.88;100.00;58037.16;2059117;28;1974;-66
2022/06/08 01:49:17;;;;;;;;;;;;;;;-145.88;100.00;58037.16;2057473;28;1956;-65
2022/06/08 01:50:23;;;;;;;;;;;;;;;-145.88;100.00;58037.16;2065731;28;1126;-66
2022/06/08 01:51:38;;;;;;;;;;;;;;;-145.88;100.00;58037.16;2056677;28;1563;-66
2022/06/08 01:52:44;;;;;;;;;;;;;;;-145.88;100.00;58037.16;2062549;28;1549;-66
2022/06/08 01:53:54;;;;;;;;;;;;;;;-145.88;100.00;58037.16;2061609;28;1708;-66
2022/06/08 01:55:04;;;;;;;;;;;;;;;-145.88;100.00;58037.16;2057537;28;2010;-67
2022/06/08 01:56:13;;;;;;;;;;;;;;;-145.88;100.00;58037.16;2057411;28;1135;-66
2022/06/08 01:57:23;;;;;;;;;;;;;;;-145.88;100.00;58037.16;2063651;28;1994;-66
2022/06/08 01:58:31;;;;;;;;;;;;;;;-145.88;100.00;58037.16;2065075;28;1860;-66
2022/06/08 01:59:38;;;;;;;;;;;;;;;-145.88;100.00;58037.16;2065211;28;1397;-65
2022/06/08 02:00:44;;;;;;;;;;;;;;;-145.88;100.00;58037.16;2063924;28;1980;-67
2022/06/08 02:01:51;;;;;;;;;;;;;;;-145.88;100.00;58037.16;2064788;28;1982;-67
2022/06/08 02:03:00;;;;;;;;;;;;;;;-145.88;100.00;58037.16;2054963;28;1764;-67
2022/06/08 02:04:08;;;;;;;;;;;;;;;-145.88;100.00;58037.16;2062494;28;1748;-67
2022/06/08 02:05:14;;;;;;;;;;;;;;;-145.88;100.00;58037.16;2065195;28;1594;-67
2022/06/08 02:06:22;;;;;;;;;;;;;;;-145.88;100.00;58037.16;2063417;28;1596;-66
2022/06/08 02:07:30;;;;;;;;;;;;;;;-145.88;100.00;58037.16;2061743;28;1917;-66
2022/06/08 02:08:35;;;;;;;;;;;;;;;-145.88;100.00;58037.16;2064878;28;2013;-66
2022/06/08 02:09:42;;;;;;;;;;;;;;;-145.88;100.00;58037.16;2057468;28;1111;-66
2022/06/08 02:10:48;;;;;;;;;;;;;;;-145.88;100.00;58037.16;2057535;28;1134;-67
2022/06/08 02:11:54;;;;;;;;;;;;;;;-145.88;100.00;58037.16;2061372;28;1709;-66
2022/06/08 02:13:01;;;;;;;;;;;;;;;-145.88;100.00;58037.16;2065573;28;1134;-66
2022/06/08 02:14:06;;;;;;;;;;;;;;;-145.88;100.00;58037.16;2049601;28;1469;-66
2022/06/08 02:15:11;;;;;;;;;;;;;;;-145.88;100.00;58037.16;2064353;28;1851;-66
2022/06/08 02:16:17;;;;;;;;;;;;;;;-145.88;100.00;58037.16;2065579;28;1097;-66
2022/06/08 02:17:24;;;;;;;;;;;;;;;-145.88;100.00;58037.16;2064271;28;1955;-67
2022/06/08 02:18:29;;;;;;;;;;;;;;;-145.88;100.00;58037.16;2065132;28;1178;-66
2022/06/08 02:19:35;;;;;;;;;;;;;;;-145.88;100.00;58037.16;2064911;28;1856;-67
2022/06/08 02:20:39;;;;;;;;;;;;;;;-145.88;100.00;58037.16;2064215;28;1753;-68
2022/06/08 02:21:44;;;;;;;;;;;;;;;-145.88;100.00;58037.16;2057441;28;1816;-66
2022/06/08 02:22:49;;;;;;;;;;;;;;;-145.88;100.00;58037.16;2065720;28;1078;-66
2022/06/08 02:23:53;;;;;;;;;;;;;;;-145.88;100.00;58037.16;2060812;28;2071;-66
2022/06/08 02:25:00;;;;;;;;;;;;;;;-145.88;100.00;58037.16;2055769;28;1753;-68
2022/06/08 02:26:06;;;;;;;;;;;;;;;-145.88;100.00;58037.16;2053554;28;1538;-67
2022/06/08 02:27:10;;;;;;;;;;;;;;;-145.88;100.00;58037.16;2065048;28;1695;-66
2022/06/08 02:28:16;;;;;;;;;;;;;;;-145.88;100.00;58037.16;2060449;28;1997;-66
2022/06/08 02:29:20;;;;;;;;;;;;;;;-145.88;100.00;58037.16;2064876;28;2046;-67
2022/06/08 02:30:24;;;;;;;;;;;;;;;-145.88;100.00;58037.16;2057859;28;1607;-67
2022/06/08 02:31:31;;;;;;;;;;;;;;;-145.88;100.00;58037.16;2065505;28;1035;-66
2022/06/08 02:35:21;;;;;;;;;;;;;;;-145.88;100.00;58037.16;2065230;28;1858;-67
2022/06/08 02:36:27;;;;;;;;;;;;;;;-145.88;100.00;58037.16;2052682;28;1121;-67
2022/06/08 02:37:31;;;;;;;;;;;;;;;-145.88;100.00;58037.16;2053046;28;1509;-66
2022/06/08 02:38:36;;;;;;;;;;;;;;;-145.88;100.00;58037.16;2057219;28;1703;-67
2022/06/08 02:39:41;;;;;;;;;;;;;;;-145.88;100.00;58037.16;2061733;28;1611;-67
2022/06/08 02:40:48;;;;;;;;;;;;;;;-145.88;100.00;58037.16;2061051;28;2015;-66
2022/06/08 02:41:52;;;;;;;;;;;;;;;-145.88;100.00;58037.16;2057510;28;1193;-67
2022/06/08 02:42:58;;;;;;;;;;;;;;;-145.88;100.00;58037.16;2057799;28;2025;-67
2022/06/08 02:44:02;;;;;;;;;;;;;;;-145.88;100.00;58037.16;2061548;28;1709;-67
2022/06/08 02:45:07;;;;;;;;;;;;;;;-145.88;100.00;58037.16;2065647;28;1003;-67
2022/06/08 02:46:16;;;;;;;;;;;;;;;-145.88;100.00;58037.16;2064682;28;2015;-66
2022/06/08 02:47:20;;;;;;;;;;;;;;;-145.88;100.00;58037.16;2061405;28;2074;-68
2022/06/08 02:48:22;;;;;;;;;;;;;;;-145.88;100.00;58037.16;2062031;28;1906;-67
2022/06/08 02:49:24;;;;;;;;;;;;;;;-145.88;100.00;58037.16;2066312;28;1692;-66
2022/06/08 02:50:28;;;;;;;;;;;;;;;-145.88;100.00;58037.16;2066211;28;1956;-66
2022/06/08 02:51:30;;;;;;;;;;;;;;;-145.88;100.00;58037.16;2063413;28;1814;-67
2022/06/08 02:52:33;;;;;;;;;;;;;;;-145.88;100.00;58037.16;2066109;28;1967;-67
2022/06/08 02:53:46;;;;;;;;;;;;;;;-145.88;100.00;58037.16;2064478;28;1469;-67
2022/06/08 02:54:51;;;;;;;;;;;;;;;-145.88;100.00;58037.16;2058853;28;2014;-68
2022/06/08 02:55:58;;;;;;;;;;;;;;;-145.88;100.00;58037.16;2063516;28;1700;-67
2022/06/08 02:57:05;;;;;;;;;;;;;;;-145.88;100.00;58037.16;2066921;28;1225;-67
2022/06/08 02:58:10;;;;;;;;;;;;;;;-145.88;100.00;58037.16;2061886;28;1845;-67
2022/06/08 02:59:18;;;;;;;;;;;;;;;-145.88;100.00;58037.16;2060190;28;1812;-68
2022/06/08 03:00:24;;;;;;;;;;;;;;;-145.88;100.00;58037.16;2064930;28;1773;-67
2022/06/08 03:01:29;;;;;;;;;;;;;;;-145.88;100.00;58037.16;2066080;28;1750;-67
2022/06/08 03:02:35;;;;;;;;;;;;;;;-145.88;100.00;58037.16;2065122;28;1494;-68
2022/06/08 03:03:41;;;;;;;;;;;;;;;-145.88;100.00;58037.16;2067135;28;1019;-72
2022/06/08 03:04:48;;;;;;;;;;;;;;;-145.88;100.00;58037.16;2064921;28;1855;-69
2022/06/08 03:05:53;;;;;;;;;;;;;;;-145.88;100.00;58037.16;2063374;28;1697;-68
2022/06/08 03:06:57;;;;;;;;;;;;;;;-145.88;100.00;58037.16;2065336;28;2343;-68
2022/06/08 03:08:05;;;;;;;;;;;;;;;-145.88;100.00;58037.16;2066720;28;1127;-68
2022/06/08 03:09:10;;;;;;;;;;;;;;;-145.88;100.00;58037.16;2066307;28;1995;-68
2022/06/08 03:10:14;;;;;;;;;;;;;;;-145.88;100.00;58037.16;2061225;28;2041;-68
2022/06/08 03:11:18;;;;;;;;;;;;;;;-145.88;100.00;58037.16;2055172;28;1759;-68
2022/06/08 03:12:24;;;;;;;;;;;;;;;-145.88;100.00;58037.16;2066149;28;1568;-68
2022/06/08 03:13:27;;;;;;;;;;;;;;;-145.88;100.00;58037.16;2066821;28;1091;-69
2022/06/08 03:14:31;;;;;;;;;;;;;;;-145.88;100.00;58037.16;2066433;28;1766;-68
2022/06/08 03:15:34;;;;;;;;;;;;;;;-145.88;100.00;58037.16;2066732;28;1131;-68
2022/06/08 03:16:39;;;;;;;;;;;;;;;-145.88;100.00;58037.16;2067029;28;1173;-68
2022/06/08 03:17:43;;;;;;;;;;;;;;;-145.88;100.00;58037.16;2065685;28;2265;-68
2022/06/08 03:18:45;;;;;;;;;;;;;;;-145.88;100.00;58037.16;2066734;28;1723;-69
2022/06/08 03:19:48;;;;;;;;;;;;;;;-145.88;100.00;58037.16;2064768;28;1872;-68
2022/06/08 03:20:51;;;;;;;;;;;;;;;-145.88;100.00;58037.16;2064940;28;1986;-68
2022/06/08 03:21:54;;;;;;;;;;;;;;;-145.88;100.00;58037.16;2058794;28;1653;-69
2022/06/08 03:22:56;;;;;;;;;;;;;;;-145.88;100.00;58037.16;2066397;28;1110;-68
2022/06/08 03:24:00;;;;;;;;;;;;;;;-145.88;100.00;58037.16;2065036;28;1850;-68
2022/06/08 03:25:02;;;;;;;;;;;;;;;-145.88;100.00;58037.16;2066314;28;1081;-69
2022/06/08 03:26:05;;;;;;;;;;;;;;;-145.88;100.00;58037.16;2066530;28;1123;-68
2022/06/08 03:27:08;;;;;;;;;;;;;;;-145.88;100.00;58037.16;2066611;28;2000;-68
2022/06/08 03:28:13;;;;;;;;;;;;;;;-145.88;100.00;58037.16;2065852;28;1991;-68
2022/06/08 03:29:15;;;;;;;;;;;;;;;-145.88;100.00;58037.16;2066906;28;1911;-71
2022/06/08 03:30:18;;;;;;;;;;;;;;;-145.88;100.00;58037.16;2065859;28;1634;-68
2022/06/08 03:31:20;;;;;;;;;;;;;;;-145.88;100.00;58037.16;2063857;28;1893;-69
2022/06/08 03:32:23;;;;;;;;;;;;;;;-145.88;100.00;58037.16;2063756;28;1979;-69
2022/06/08 03:33:25;;;;;;;;;;;;;;;-145.88;100.00;58037.16;2061511;28;1126;-68
2022/06/08 03:34:28;;;;;;;;;;;;;;;-145.88;100.00;58037.16;2064117;28;1959;-67
2022/06/08 03:35:30;;;;;;;;;;;;;;;-145.88;100.00;58037.16;2062626;28;1909;-67
2022/06/08 03:36:33;;;;;;;;;;;;;;;-145.88;100.00;58037.16;2066598;28;1631;-68
2022/06/08 03:37:36;;;;;;;;;;;;;;;-145.88;100.00;58037.16;2066351;28;1653;-68
2022/06/08 03:38:38;;;;;;;;;;;;;;;-145.88;100.00;58037.16;2061350;28;1512;-68
2022/06/08 03:39:41;;;;;;;;;;;;;;;-145.88;100.00;58037.16;2065423;28;1330;-68
2022/06/08 03:40:43;;;;;;;;;;;;;;;-145.88;100.00;58037.16;2063816;28;1832;-68
2022/06/08 03:41:46;;;;;;;;;;;;;;;-145.88;100.00;58037.16;2061987;28;1491;-68
2022/06/08 03:42:49;;;;;;;;;;;;;;;-145.88;100.00;58037.16;2063570;28;1466;-68
2022/06/08 03:43:52;;;;;;;;;;;;;;;-145.88;100.00;58037.16;2054117;28;1656;-68
2022/06/08 03:44:54;;;;;;;;;;;;;;;-145.88;100.00;58037.16;2060069;28;1162;-69
2022/06/08 03:45:59;;;;;;;;;;;;;;;-145.88;100.00;58037.16;2065162;28;1521;-68
2022/06/08 03:47:03;;;;;;;;;;;;;;;-145.88;100.00;58037.16;2059773;28;1468;-69
2022/06/08 03:48:07;;;;;;;;;;;;;;;-145.88;100.00;58037.16;2061060;28;1600;-69
2022/06/08 03:49:09;;;;;;;;;;;;;;;-145.88;100.00;58037.16;2062004;28;1488;-69
2022/06/08 03:50:14;;;;;;;;;;;;;;;-145.88;100.00;58037.16;2061177;28;2119;-69
2022/06/08 03:51:17;;;;;;;;;;;;;;;-145.88;100.00;58037.16;2064878;28;1692;-68
2022/06/08 03:52:22;;;;;;;;;;;;;;;-145.88;100.00;58037.16;2061461;28;1746;-68
2022/06/08 03:53:26;;;;;;;;;;;;;;;-145.88;100.00;58037.16;2061428;28;1723;-68
2022/06/08 03:54:32;;;;;;;;;;;;;;;-145.88;100.00;58037.16;2063398;28;1636;-73
2022/06/08 03:55:34;;;;;;;;;;;;;;;-145.88;100.00;58037.16;2061206;28;1869;-75
2022/06/08 03:56:38;;;;;;;;;;;;;;;-145.88;100.00;58037.16;2059607;28;1802;-69
2022/06/08 03:57:45;;;;;;;;;;;;;;;-145.88;100.00;58037.16;2067374;28;1871;-68
2022/06/08 03:58:48;;;;;;;;;;;;;;;-145.88;100.00;58037.16;2058167;28;1720;-71
2022/06/08 03:59:51;;;;;;;;;;;;;;;-145.88;100.00;58037.16;2056073;28;1971;-69
2022/06/08 04:00:55;;;;;;;;;;;;;;;-145.88;100.00;58037.16;2055003;28;2020;-67
2022/06/08 04:01:57;;;;;;;;;;;;;;;-145.88;100.00;58037.16;2059894;28;1131;-70
2022/06/08 04:03:00;;;;;;;;;;;;;;;-145.88;100.00;58037.16;2059114;28;1818;-69
2022/06/08 04:04:02;;;;;;;;;;;;;;;-145.88;100.00;58037.16;2062726;28;1681;-70
2022/06/08 04:05:06;;;;;;;;;;;;;;;-145.88;100.00;58037.16;2058197;28;1360;-66
2022/06/08 04:06:08;;;;;;;;;;;;;;;-145.88;100.00;58037.16;2058412;28;1130;-67
2022/06/08 04:07:11;;;;;;;;;;;;;;;-145.88;100.00;58037.16;2050283;28;1105;-67
2022/06/08 04:08:13;;;;;;;;;;;;;;;-145.88;100.00;58037.16;2058206;28;1135;-68
2022/06/08 04:09:16;;;;;;;;;;;;;;;-145.88;100.00;58037.16;2065017;28;1771;-67
2022/06/08 04:10:19;;;;;;;;;;;;;;;-145.88;100.00;58037.16;2066387;28;1979;-69
2022/06/08 04:11:21;;;;;;;;;;;;;;;-145.88;100.00;58037.16;2065268;28;1444;-68
2022/06/08 04:12:24;;;;;;;;;;;;;;;-145.88;100.00;58037.16;2066730;28;1519;-68
2022/06/08 04:13:26;;;;;;;;;;;;;;;-145.88;100.00;58037.16;2064918;28;1652;-69
2022/06/08 04:14:30;;;;;;;;;;;;;;;-145.88;100.00;58037.16;2065836;28;1450;-68
2022/06/08 04:15:44;;;;;;;;;;;;;;;-145.88;100.00;58037.16;2064243;28;1786;-68
2022/06/08 04:16:47;;;;;;;;;;;;;;;-145.88;100.00;58037.16;2061462;28;1687;-69
2022/06/08 04:17:49;;;;;;;;;;;;;;;-145.88;100.00;58037.16;2060964;28;1716;-71
2022/06/08 04:18:52;;;;;;;;;;;;;;;-145.88;100.00;58037.16;2054459;28;1771;-68
2022/06/08 04:19:54;;;;;;;;;;;;;;;-145.88;100.00;58037.16;2058430;28;1118;-69
2022/06/08 04:20:58;;;;;;;;;;;;;;;-145.88;100.00;58037.16;2058561;28;1004;-69
2022/06/08 04:22:01;;;;;;;;;;;;;;;-145.88;100.00;58037.16;2058336;28;1182;-69
2022/06/08 04:23:03;;;;;;;;;;;;;;;-145.88;100.00;58037.16;2058503;28;1006;-69
2022/06/08 04:24:07;;;;;;;;;;;;;;;-145.88;100.00;58037.16;2058700;28;1137;-70
2022/06/08 04:25:09;;;;;;;;;;;;;;;-145.88;100.00;58037.16;2058482;28;1086;-68
2022/06/08 04:26:12;;;;;;;;;;;;;;;-145.88;100.00;58037.16;2058099;28;1067;-68
2022/06/08 04:27:14;;;;;;;;;;;;;;;-145.88;100.00;58037.16;2058647;28;1132;-68
2022/06/08 04:28:17;;;;;;;;;;;;;;;-145.88;100.00;58037.16;2058175;28;1054;-69
2022/06/08 04:29:20;;;;;;;;;;;;;;;-145.88;100.00;58037.16;2054167;28;1012;-69
2022/06/08 04:30:23;;;;;;;;;;;;;;;-145.88;100.00;58037.16;2053580;28;1989;-69
2022/06/08 04:31:26;;;;;;;;;;;;;;;-145.88;100.00;58037.16;2058477;28;1123;-68
2022/06/08 04:32:28;;;;;;;;;;;;;;;-145.88;100.00;58037.16;2058228;28;1115;-68
2022/06/08 04:33:31;;;;;;;;;;;;;;;-145.88;100.00;58037.16;2057715;28;1104;-68
2022/06/08 04:34:33;;;;;;;;;;;;;;;-145.88;100.00;58037.16;2058458;28;1070;-69
2022/06/08 04:35:36;;;;;;;;;;;;;;;-145.88;100.00;58037.16;2057978;28;1031;-67
2022/06/08 04:36:41;;;;;;;;;;;;;;;-145.88;100.00;58037.16;2058285;28;1015;-69
2022/06/08 04:37:44;;;;;;;;;;;;;;;-145.88;100.00;58037.16;2058129;28;963;-69
2022/06/08 04:38:46;;;;;;;;;;;;;;;-145.88;100.00;58037.16;2058041;28;1127;-69
2022/06/08 04:39:49;;;;;;;;;;;;;;;-145.88;100.00;58037.16;2058033;28;1135;-69
2022/06/08 04:40:59;;;;;;;;;;;;;;;-145.88;100.00;58037.16;2052674;28;1065;-69
2022/06/08 04:42:01;;;;;;;;;;;;;;;-145.88;100.00;58037.16;2053198;28;1096;-69
2022/06/08 04:43:04;;;;;;;;;;;;;;;-145.88;100.00;58037.16;2057223;28;1131;-69
2022/06/08 04:44:06;;;;;;;;;;;;;;;-145.88;100.00;58037.16;2057595;28;1131;-69
2022/06/08 04:45:10;;;;;;;;;;;;;;;-145.88;100.00;58037.16;2057304;28;1131;-69
2022/06/08 04:46:16;;;;;;;;;;;;;;;-145.88;100.00;58037.16;2057259;28;1851;-70
2022/06/08 04:47:19;;;;;;;;;;;;;;;-145.88;100.00;58037.16;2057561;28;1166;-69
2022/06/08 04:48:21;;;;;;;;;;;;;;;-145.88;100.00;58037.16;2056686;28;1699;-69
2022/06/08 04:49:24;;;;;;;;;;;;;;;-145.88;100.00;58037.16;2057441;28;1135;-69
2022/06/08 04:50:26;;;;;;;;;;;;;;;-145.88;100.00;58037.16;2057340;28;1988;-69
2022/06/08 04:51:29;;;;;;;;;;;;;;;-145.88;100.00;58037.16;2057340;28;987;-70
2022/06/08 04:52:31;;;;;;;;;;;;;;;-145.88;100.00;58037.16;2051532;28;1018;-69
2022/06/08 04:53:34;;;;;;;;;;;;;;;-145.88;100.00;58037.16;2055656;28;1082;-68
2022/06/08 04:54:36;;;;;;;;;;;;;;;-145.88;100.00;58037.16;2057575;28;1002;-69
2022/06/08 04:55:45;;;;;;;;;;;;;;;-145.88;100.00;58037.16;2057205;28;1657;-70
2022/06/08 04:56:47;;;;;;;;;;;;;;;-145.88;100.00;58037.16;2058208;28;1161;-69
2022/06/08 04:57:50;;;;;;;;;;;;;;;-145.88;100.00;58037.16;2057991;28;1541;-69
2022/06/08 04:58:54;;;;;;;;;;;;;;;-145.88;100.00;58037.16;2057737;28;1632;-69
2022/06/08 04:59:56;;;;;;;;;;;;;;;-145.88;100.00;58037.16;2058291;28;1534;-69
2022/06/08 05:00:59;;;;;;;;;;;;;;;-145.88;100.00;58037.16;2058121;28;1082;-69
2022/06/08 05:02:03;;;;;;;;;;;;;;;-145.88;100.00;58037.16;2058085;28;1127;-68
2022/06/08 05:03:06;;;;;;;;;;;;;;;-145.88;100.00;58037.16;2057432;28;1069;-68
2022/06/08 05:04:09;;;;;;;;;;;;;;;-145.88;100.00;58037.16;2050009;28;1119;-70
2022/06/08 05:05:12;;;;;;;;;;;;;;;-145.88;100.00;58037.16;2057820;28;1406;-69
2022/06/08 05:06:15;;;;;;;;;;;;;;;-145.88;100.00;58037.16;2057936;28;1119;-69
2022/06/08 05:07:17;;;;;;;;;;;;;;;-145.88;100.00;58037.16;2058338;28;996;-68
2022/06/08 05:08:20;;;;;;;;;;;;;;;-145.88;100.00;58037.16;2058005;28;1769;-69
2022/06/08 05:09:22;;;;;;;;;;;;;;;-145.88;100.00;58037.16;2057657;28;1175;-68
2022/06/08 05:10:27;;;;;;;;;;;;;;;-145.88;100.00;58037.16;2057539;28;1186;-69
2022/06/08 05:11:29;;;;;;;;;;;;;;;-145.88;100.00;58037.16;2057982;28;1906;-69
2022/06/08 05:12:33;;;;;;;;;;;;;;;-145.88;100.00;58037.16;2058363;28;1074;-68
2022/06/08 05:13:37;;;;;;;;;;;;;;;-145.88;100.00;58037.16;2057830;28;1170;-69
2022/06/08 05:14:39;;;;;;;;;;;;;;;-145.88;100.00;58037.16;2053909;28;1123;-69
2022/06/08 05:15:45;;;;;;;;;;;;;;;-145.88;100.00;58037.16;2053339;28;1078;-70
2022/06/08 05:16:47;;;;;;;;;;;;;;;-145.88;100.00;58037.16;2057767;28;1479;-68
2022/06/08 05:17:51;;;;;;;;;;;;;;;-145.88;100.00;58037.16;2057499;28;1777;-69
2022/06/08 05:18:54;;;;;;;;;;;;;;;-145.88;100.00;58037.16;2057660;28;1351;-69
2022/06/08 05:19:56;;;;;;;;;;;;;;;-145.88;100.00;58037.16;2057761;28;1323;-69
2022/06/08 05:20:59;;;;;;;;;;;;;;;-145.88;100.00;58037.16;2058039;28;1130;-69
2022/06/08 05:22:01;;;;;;;;;;;;;;;-145.88;100.00;58037.16;2058021;28;994;-69
2022/06/08 05:23:04;;;;;;;;;;;;;;;-145.88;100.00;58037.16;2058012;28;1112;-68
2022/06/08 05:24:07;;;;;;;;;;;;;;;-145.88;100.00;58037.16;2058016;28;1158;-69
2022/06/08 05:25:11;;;;;;;;;;;;;;;-145.88;100.00;58037.16;2057655;28;1081;-69
2022/06/08 05:26:14;;;;;;;;;;;;;;;-145.88;100.00;58037.16;2053756;28;1859;-69
2022/06/08 05:27:17;;;;;;;;;;;;;;;-145.88;100.00;58037.16;2053250;28;1050;-69
2022/06/08 05:28:21;;;;;;;;;;;;;;;-145.88;100.00;58037.16;2058410;28;1003;-68
2022/06/08 05:29:22;;;;;;;;;;;;;;;-145.88;100.00;58037.16;2057630;28;1070;-69
2022/06/08 05:30:26;;;;;;;;;;;;;;;-145.88;100.00;58037.16;2057723;28;1124;-69